Time;durP1;ratioP1;P1;durP2;ratioP2;P2;SDS_P1;SDS_P2;PMS_P1;PMS_P2;Temp;Humidity;BMP_temperature;BMP_pressure;BME280_temperature;BME280_humidity;BME280_pressure;Samples;Min_cycle;Max_cycle;Signal;HPM_P1;HPM_P2
2023/08/01 00:00:25;;;;;;;6.82;3.10;;;;;;;;;;5054013;28;20052;-32
2023/08/01 00:02:51;;;;;;;7.93;2.65;;;;;;;;;;5053573;28;20017;-31
2023/08/01 00:05:16;;;;;;;7.40;2.80;;;;;;;;;;5053683;28;20013;-31
2023/08/01 00:07:41;;;;;;;12.63;2.97;;;;;;;;;;5035784;28;20017;-31
2023/08/01 00:10:06;;;;;;;7.30;2.60;;;;;;;;;;5053865;28;20602;-31
2023/08/01 00:12:32;;;;;;;7.65;2.72;;;;;;;;;;5053832;28;20260;-31
2023/08/01 00:14:57;;;;;;;11.20;3.35;;;;;;;;;;5053550;28;20024;-31
2023/08/01 00:17:22;;;;;;;6.45;2.83;;;;;;;;;;5053525;28;20021;-30
2023/08/01 00:19:47;;;;;;;8.93;3.10;;;;;;;;;;5053946;28;20024;-31
2023/08/01 00:22:13;;;;;;;13.13;3.38;;;;;;;;;;5053371;28;20017;-31
2023/08/01 00:24:38;;;;;;;13.70;3.50;;;;;;;;;;5053714;28;20041;-31
2023/08/01 00:27:03;;;;;;;13.47;3.33;;;;;;;;;;5053426;28;20013;-31
2023/08/01 00:29:29;;;;;;;16.50;3.25;;;;;;;;;;5053399;28;20263;-31
2023/08/01 00:31:54;;;;;;;10.85;3.10;;;;;;;;;;5053330;28;20142;-31
2023/08/01 00:34:20;;;;;;;12.97;3.10;;;;;;;;;;5053523;28;20070;-31
2023/08/01 00:36:45;;;;;;;10.30;3.25;;;;;;;;;;5053269;28;20740;-31
2023/08/01 00:39:10;;;;;;;10.10;3.42;;;;;;;;;;5053293;28;20486;-31
2023/08/01 00:41:35;;;;;;;10.70;3.00;;;;;;;;;;5053490;28;20418;-32
2023/08/01 00:44:00;;;;;;;9.93;3.17;;;;;;;;;;5053169;28;20031;-32
2023/08/01 00:46:26;;;;;;;11.57;2.90;;;;;;;;;;5053146;28;20367;-32
2023/08/01 00:48:51;;;;;;;9.13;2.90;;;;;;;;;;5053231;28;20043;-31
2023/08/01 00:51:18;;;;;;;6.75;2.70;;;;;;;;;;5053376;28;20739;-32
2023/08/01 00:53:45;;;;;;;13.43;3.20;;;;;;;;;;5053385;28;20021;-32
2023/08/01 00:56:10;;;;;;;11.60;3.30;;;;;;;;;;5057139;28;20020;-32
2023/08/01 00:58:35;;;;;;;12.17;3.10;;;;;;;;;;5057109;28;20091;-31
2023/08/01 01:01:00;;;;;;;10.82;3.22;;;;;;;;;;5057058;28;20097;-31
2023/08/01 01:03:26;;;;;;;17.63;3.50;;;;;;;;;;5057003;28;20032;-31
2023/08/01 01:06:02;;;;;;;13.43;3.63;;;;;;;;;;5057270;28;20258;-31
2023/08/01 01:08:27;;;;;;;11.07;3.00;;;;;;;;;;5056890;28;20013;-31
2023/08/01 01:10:52;;;;;;;9.20;3.40;;;;;;;;;;5056853;28;20013;-31
2023/08/01 01:13:18;;;;;;;13.47;3.17;;;;;;;;;;5057134;28;20264;-31
2023/08/01 01:15:43;;;;;;;16.90;3.67;;;;;;;;;;5057341;28;20266;-31
2023/08/01 01:18:08;;;;;;;12.55;3.40;;;;;;;;;;5056654;28;20313;-31
2023/08/01 01:20:35;;;;;;;12.67;3.27;;;;;;;;;;5057045;28;20021;-31
2023/08/01 01:23:00;;;;;;;18.95;3.22;;;;;;;;;;5038740;28;20784;-30
2023/08/01 01:25:26;;;;;;;10.35;3.10;;;;;;;;;;5056534;28;20017;-31
2023/08/01 01:27:52;;;;;;;14.75;3.72;;;;;;;;;;5056836;28;20090;-31
2023/08/01 01:30:18;;;;;;;10.15;3.67;;;;;;;;;;5056535;28;20017;-31
2023/08/01 01:32:43;;;;;;;16.30;3.65;;;;;;;;;;5056784;28;20428;-31
2023/08/01 01:35:09;;;;;;;15.43;3.78;;;;;;;;;;5056963;28;20027;-31
2023/08/01 01:37:34;;;;;;;14.85;3.53;;;;;;;;;;5056385;28;20360;-31
2023/08/01 01:39:59;;;;;;;9.73;3.37;;;;;;;;;;5038478;28;20112;-31
2023/08/01 01:42:25;;;;;;;9.47;3.23;;;;;;;;;;5056182;28;20765;-31
2023/08/01 01:44:50;;;;;;;11.53;3.20;;;;;;;;;;5038500;28;20259;-31
2023/08/01 01:47:15;;;;;;;10.05;3.33;;;;;;;;;;5056709;28;20286;-31
2023/08/01 01:49:40;;;;;;;11.33;3.50;;;;;;;;;;5056058;28;20049;-31
2023/08/01 01:52:06;;;;;;;9.53;3.50;;;;;;;;;;5056088;28;20733;-31
2023/08/01 01:54:31;;;;;;;14.38;3.78;;;;;;;;;;5055962;28;20259;-31
2023/08/01 01:56:56;;;;;;;13.50;3.70;;;;;;;;;;5056019;28;20013;-31
2023/08/01 01:59:21;;;;;;;9.17;3.23;;;;;;;;;;5056315;28;20575;-32
2023/08/01 02:01:46;;;;;;;9.87;3.43;;;;;;;;;;5056262;28;20783;-32
2023/08/01 02:04:11;;;;;;;10.87;3.57;;;;;;;;;;5055876;28;20283;-32
2023/08/01 02:06:37;;;;;;;10.40;3.30;;;;;;;;;;5056070;28;20294;-32
2023/08/01 02:09:02;;;;;;;14.30;3.77;;;;;;;;;;5055861;28;20017;-32
2023/08/01 02:11:27;;;;;;;10.73;3.40;;;;;;;;;;5055773;28;20607;-32
2023/08/01 02:13:53;;;;;;;14.55;3.78;;;;;;;;;;5055649;28;20294;-32
2023/08/01 02:16:19;;;;;;;14.32;3.88;;;;;;;;;;5055642;28;20021;-32
2023/08/01 02:18:44;;;;;;;9.55;3.55;;;;;;;;;;5055641;28;20032;-34
2023/08/01 02:21:09;;;;;;;11.05;3.47;;;;;;;;;;5055832;28;20013;-32
2023/08/01 02:23:37;;;;;;;13.33;4.10;;;;;;;;;;5055419;28;20024;-32
2023/08/01 02:26:02;;;;;;;10.82;3.83;;;;;;;;;;5055396;28;20017;-31
2023/08/01 02:28:27;;;;;;;12.83;4.07;;;;;;;;;;5056044;28;20017;-31
2023/08/01 02:30:52;;;;;;;11.53;3.50;;;;;;;;;;5055331;28;20013;-32
2023/08/01 02:33:17;;;;;;;15.77;3.80;;;;;;;;;;5055610;28;20291;-32
2023/08/01 02:35:43;;;;;;;13.97;3.60;;;;;;;;;;5055296;28;20281;-32
2023/08/01 02:38:08;;;;;;;13.87;3.27;;;;;;;;;;5055213;28;20048;-32
2023/08/01 02:40:33;;;;;;;11.63;3.60;;;;;;;;;;5055474;28;20256;-32
2023/08/01 02:42:58;;;;;;;10.67;3.00;;;;;;;;;;5055011;28;20794;-32
2023/08/01 02:45:24;;;;;;;12.88;3.55;;;;;;;;;;5055279;28;20260;-32
2023/08/01 02:47:49;;;;;;;10.35;3.17;;;;;;;;;;5055309;28;20020;-32
2023/08/01 02:50:14;;;;;;;10.00;3.20;;;;;;;;;;5054886;28;20048;-31
2023/08/01 02:52:39;;;;;;;7.60;3.00;;;;;;;;;;5054940;28;20251;-31
2023/08/01 02:55:05;;;;;;;8.98;2.70;;;;;;;;;;5055005;28;20108;-31
2023/08/01 02:57:30;;;;;;;6.18;2.50;;;;;;;;;;5055335;28;20032;-31
2023/08/01 02:59:55;;;;;;;10.40;2.88;;;;;;;;;;5055273;28;20455;-32
2023/08/01 03:02:20;;;;;;;10.23;2.80;;;;;;;;;;5054950;28;20055;-32
2023/08/01 03:04:46;;;;;;;9.27;2.73;;;;;;;;;;5055475;28;20017;-31
2023/08/01 03:07:11;;;;;;;10.30;2.72;;;;;;;;;;5054953;28;20475;-31
2023/08/01 03:09:36;;;;;;;8.48;3.10;;;;;;;;;;5054828;28;20016;-31
2023/08/01 03:12:01;;;;;;;7.30;2.83;;;;;;;;;;5054674;28;20021;-31
2023/08/01 03:14:27;;;;;;;8.85;2.75;;;;;;;;;;5055143;28;20261;-31
2023/08/01 03:16:52;;;;;;;10.90;2.67;;;;;;;;;;5053848;28;20486;-31
2023/08/01 03:19:18;;;;;;;6.25;2.65;;;;;;;;;;5054972;28;20096;-31
2023/08/01 03:21:43;;;;;;;9.45;3.03;;;;;;;;;;5054482;28;20467;-31
2023/08/01 03:24:08;;;;;;;11.48;3.13;;;;;;;;;;5054365;28;20029;-31
2023/08/01 03:26:34;;;;;;;6.78;2.80;;;;;;;;;;5054629;28;20405;-31
2023/08/01 03:28:59;;;;;;;10.63;3.10;;;;;;;;;;5054388;28;20459;-32
2023/08/01 03:31:24;;;;;;;12.83;3.43;;;;;;;;;;5054818;28;20025;-32
2023/08/01 03:33:50;;;;;;;13.63;3.23;;;;;;;;;;5054288;28;20259;-31
2023/08/01 03:36:15;;;;;;;10.43;3.22;;;;;;;;;;5054111;28;20259;-31
2023/08/01 03:38:40;;;;;;;9.68;3.17;;;;;;;;;;5054111;28;20021;-31
2023/08/01 03:41:06;;;;;;;10.93;3.53;;;;;;;;;;5054352;28;20075;-30
2023/08/01 03:43:31;;;;;;;10.32;3.13;;;;;;;;;;5053875;28;20283;-31
2023/08/01 03:45:56;;;;;;;12.90;3.60;;;;;;;;;;5054484;28;20025;-31
2023/08/01 03:48:21;;;;;;;13.90;3.85;;;;;;;;;;5053892;28;20048;-31
2023/08/01 03:50:46;;;;;;;8.67;3.27;;;;;;;;;;5053740;28;20043;-31
2023/08/01 03:53:12;;;;;;;11.70;3.37;;;;;;;;;;5036015;28;20303;-31
2023/08/01 03:55:37;;;;;;;10.57;3.63;;;;;;;;;;5053769;28;20812;-31
2023/08/01 03:58:02;;;;;;;10.70;3.63;;;;;;;;;;5053764;28;20493;-31
2023/08/01 04:00:32;;;;;;;15.15;3.63;;;;;;;;;;5053757;28;20069;-31
2023/08/01 04:02:57;;;;;;;13.88;4.13;;;;;;;;;;5035797;28;20056;-31
2023/08/01 04:05:24;;;;;;;13.32;3.88;;;;;;;;;;5054224;28;20056;-31
2023/08/01 04:07:49;;;;;;;13.45;3.88;;;;;;;;;;5054201;28;20104;-31
2023/08/01 04:10:14;;;;;;;13.18;4.28;;;;;;;;;;5053586;28;20103;-31
2023/08/01 04:12:39;;;;;;;12.32;3.97;;;;;;;;;;5053870;28;20025;-31
2023/08/01 04:15:05;;;;;;;14.02;4.07;;;;;;;;;;5054063;28;20079;-31
2023/08/01 04:17:30;;;;;;;14.27;4.03;;;;;;;;;;5053666;28;20508;-31
2023/08/01 04:19:56;;;;;;;14.23;4.40;;;;;;;;;;5053463;28;20024;-32
2023/08/01 04:22:21;;;;;;;14.40;4.38;;;;;;;;;;5053334;28;20028;-32
2023/08/01 04:24:46;;;;;;;23.23;4.78;;;;;;;;;;5053421;28;20021;-32
2023/08/01 04:27:11;;;;;;;15.70;4.20;;;;;;;;;;5053678;28;20078;-31
2023/08/01 04:29:36;;;;;;;22.70;4.70;;;;;;;;;;5053860;28;20258;-32
2023/08/01 04:32:02;;;;;;;17.35;4.53;;;;;;;;;;5053881;28;20599;-32
2023/08/01 04:34:27;;;;;;;16.20;4.53;;;;;;;;;;5053243;28;20013;-31
2023/08/01 04:36:52;;;;;;;17.77;4.50;;;;;;;;;;5035401;28;20116;-32
2023/08/01 04:39:17;;;;;;;17.67;4.53;;;;;;;;;;5053244;28;20258;-32
2023/08/01 04:41:43;;;;;;;18.88;4.32;;;;;;;;;;5035298;28;20264;-32
2023/08/01 04:44:08;;;;;;;17.98;4.65;;;;;;;;;;5053043;28;20027;-32
2023/08/01 04:46:33;;;;;;;17.67;4.70;;;;;;;;;;5053631;28;20021;-32
2023/08/01 04:48:58;;;;;;;18.17;4.95;;;;;;;;;;5053116;28;20075;-31
2023/08/01 04:51:24;;;;;;;15.40;4.40;;;;;;;;;;5035112;28;20029;-32
2023/08/01 04:53:49;;;;;;;16.85;4.13;;;;;;;;;;5053244;28;20029;-32
2023/08/01 04:56:14;;;;;;;17.60;4.72;;;;;;;;;;5053274;28;20029;-32
2023/08/01 04:58:40;;;;;;;17.17;4.40;;;;;;;;;;5053006;28;20032;-32
2023/08/01 05:01:05;;;;;;;19.27;4.53;;;;;;;;;;5052934;28;20092;-32
2023/08/01 05:03:30;;;;;;;22.10;4.63;;;;;;;;;;5052864;28;20286;-32
2023/08/01 05:05:55;;;;;;;18.07;4.40;;;;;;;;;;5053446;28;20017;-31
2023/08/01 05:08:20;;;;;;;18.20;4.63;;;;;;;;;;5053164;28;20451;-32
2023/08/01 05:10:46;;;;;;;16.50;4.40;;;;;;;;;;5052850;28;20052;-32
2023/08/01 05:13:11;;;;;;;14.93;4.50;;;;;;;;;;5053341;28;20291;-33
2023/08/01 05:15:36;;;;;;;20.33;4.70;;;;;;;;;;5053307;28;20306;-32
2023/08/01 05:18:01;;;;;;;17.25;4.38;;;;;;;;;;5052780;28;20020;-32
2023/08/01 05:20:30;;;;;;;17.42;4.65;;;;;;;;;;5034769;28;20021;-32
2023/08/01 05:22:56;;;;;;;16.98;4.63;;;;;;;;;;5052743;28;20463;-32
2023/08/01 05:25:22;;;;;;;16.52;4.10;;;;;;;;;;5052670;28;20023;-32
2023/08/01 05:27:47;;;;;;;14.00;4.07;;;;;;;;;;5052652;28;20099;-32
2023/08/01 05:30:12;;;;;;;14.63;3.73;;;;;;;;;;5053057;28;20017;-32
2023/08/01 05:32:39;;;;;;;18.27;4.50;;;;;;;;;;5052631;28;20746;-32
2023/08/01 05:35:04;;;;;;;14.48;3.65;;;;;;;;;;5052879;28;20108;-32
2023/08/01 05:37:30;;;;;;;11.27;3.70;;;;;;;;;;5034671;28;20045;-32
2023/08/01 05:39:55;;;;;;;17.15;3.72;;;;;;;;;;5052578;28;20052;-32
2023/08/01 05:42:20;;;;;;;16.90;3.53;;;;;;;;;;5056066;28;20379;-32
2023/08/01 05:44:45;;;;;;;16.35;3.90;;;;;;;;;;5056192;28;20713;-32
2023/08/01 05:47:10;;;;;;;14.40;4.23;;;;;;;;;;5056601;28;20070;-35
2023/08/01 05:49:36;;;;;;;17.30;4.20;;;;;;;;;;5056163;28;20361;-32
2023/08/01 05:52:01;;;;;;;15.05;3.85;;;;;;;;;;5056124;28;20040;-32
2023/08/01 05:54:26;;;;;;;14.93;3.93;;;;;;;;;;5056289;28;20032;-32
2023/08/01 05:56:52;;;;;;;18.20;3.77;;;;;;;;;;5056085;28;20783;-32
2023/08/01 05:59:17;;;;;;;11.48;3.55;;;;;;;;;;5056119;28;20302;-32
2023/08/01 06:01:43;;;;;;;19.23;4.20;;;;;;;;;;5056295;28;20501;-32
2023/08/01 06:04:08;;;;;;;12.48;3.20;;;;;;;;;;5056174;28;20033;-32
2023/08/01 06:06:33;;;;;;;12.97;3.53;;;;;;;;;;5056037;28;20017;-32
2023/08/01 06:08:58;;;;;;;13.43;3.47;;;;;;;;;;5056475;28;20350;-32
2023/08/01 06:11:24;;;;;;;11.57;3.20;;;;;;;;;;5038035;28;20351;-36
2023/08/01 06:13:49;;;;;;;16.23;3.53;;;;;;;;;;5055998;28;20722;-32
2023/08/01 06:16:14;;;;;;;10.70;3.33;;;;;;;;;;5055793;28;20251;-32
2023/08/01 06:18:39;;;;;;;13.63;3.20;;;;;;;;;;5055641;28;20256;-31
2023/08/01 06:21:04;;;;;;;10.90;3.23;;;;;;;;;;5055648;28;20060;-35
2023/08/01 06:23:30;;;;;;;14.13;2.83;;;;;;;;;;5055350;28;20289;-32
2023/08/01 06:25:55;;;;;;;15.10;3.17;;;;;;;;;;5055891;28;20036;-32
2023/08/01 06:28:20;;;;;;;9.20;2.80;;;;;;;;;;5056002;28;20028;-32
2023/08/01 06:30:45;;;;;;;8.53;2.80;;;;;;;;;;5055998;28;20359;-32
2023/08/01 06:33:10;;;;;;;7.57;2.47;;;;;;;;;;5055436;28;20017;-32
2023/08/01 06:35:36;;;;;;;10.47;2.73;;;;;;;;;;5055456;28;20017;-33
2023/08/01 06:38:01;;;;;;;8.20;2.60;;;;;;;;;;5054949;28;20596;-33
2023/08/01 06:40:26;;;;;;;8.83;2.80;;;;;;;;;;5054708;28;20025;-33
2023/08/01 06:42:51;;;;;;;8.63;2.47;;;;;;;;;;5053932;28;20025;-32
2023/08/01 06:45:17;;;;;;;8.10;2.57;;;;;;;;;;5055018;28;20013;-31
2023/08/01 06:47:42;;;;;;;10.13;2.80;;;;;;;;;;5055152;28;20271;-31
2023/08/01 06:50:07;;;;;;;10.47;2.90;;;;;;;;;;5054720;28;20041;-32
2023/08/01 06:52:33;;;;;;;11.40;2.45;;;;;;;;;;5052819;28;20017;-31
2023/08/01 06:54:58;;;;;;;7.03;2.40;;;;;;;;;;5052596;28;20028;-31
2023/08/01 06:57:23;;;;;;;12.47;2.63;;;;;;;;;;5052926;28;20262;-31
2023/08/01 06:59:48;;;;;;;8.95;2.70;;;;;;;;;;5052611;28;20025;-31
2023/08/01 07:02:15;;;;;;;9.77;2.67;;;;;;;;;;5052438;28;20379;-31
2023/08/01 07:04:40;;;;;;;7.30;2.33;;;;;;;;;;5034497;28;20547;-31
2023/08/01 07:07:05;;;;;;;7.13;2.53;;;;;;;;;;5052653;28;20101;-31
2023/08/01 07:09:30;;;;;;;9.00;2.50;;;;;;;;;;5052442;28;20426;-31
2023/08/01 07:11:56;;;;;;;14.33;2.60;;;;;;;;;;5053926;28;20108;-31
2023/08/01 07:14:21;;;;;;;9.80;3.00;;;;;;;;;;5054469;28;20283;-31
2023/08/01 07:16:46;;;;;;;12.68;2.63;;;;;;;;;;5054853;28;20271;-31
2023/08/01 07:19:11;;;;;;;8.75;2.40;;;;;;;;;;5054376;28;20387;-31
2023/08/01 07:21:37;;;;;;;13.87;2.57;;;;;;;;;;5053385;28;20017;-31
2023/08/01 07:24:02;;;;;;;8.32;2.72;;;;;;;;;;5054411;28;20756;-31
2023/08/01 07:26:28;;;;;;;10.52;2.60;;;;;;;;;;5054063;28;20032;-31
2023/08/01 07:28:53;;;;;;;15.73;2.88;;;;;;;;;;5054094;28;20028;-31
2023/08/01 07:31:19;;;;;;;15.30;3.30;;;;;;;;;;5054083;28;20021;-31
2023/08/01 07:33:44;;;;;;;8.02;3.10;;;;;;;;;;5054385;28;20131;-31
2023/08/01 07:36:09;;;;;;;8.07;2.87;;;;;;;;;;5054240;28;20024;-31
2023/08/01 07:38:34;;;;;;;9.65;2.83;;;;;;;;;;5054219;28;20251;-31
2023/08/01 07:41:04;;;;;;;9.83;2.80;;;;;;;;;;5053935;28;20020;-31
2023/08/01 07:43:29;;;;;;;10.48;2.90;;;;;;;;;;5054444;28;20021;-31
2023/08/01 07:45:57;;;;;;;10.20;2.97;;;;;;;;;;5053787;28;20028;-32
2023/08/01 07:48:23;;;;;;;11.25;3.10;;;;;;;;;;5054383;28;20021;-32
2023/08/01 07:50:48;;;;;;;10.03;3.20;;;;;;;;;;5053673;28;20044;-32
2023/08/01 07:53:13;;;;;;;12.03;3.30;;;;;;;;;;5054254;28;20108;-32
2023/08/01 07:55:38;;;;;;;11.48;3.40;;;;;;;;;;5053664;28;20259;-32
2023/08/01 07:58:04;;;;;;;14.63;3.35;;;;;;;;;;5053902;28;20013;-32
2023/08/01 08:00:29;;;;;;;12.13;3.00;;;;;;;;;;5053634;28;20025;-32
2023/08/01 08:02:54;;;;;;;18.33;3.60;;;;;;;;;;5053496;28;20370;-31
2023/08/01 08:05:19;;;;;;;9.03;2.40;;;;;;;;;;5053552;28;20264;-32
2023/08/01 08:07:44;;;;;;;10.97;3.43;;;;;;;;;;5054080;28;20247;-30
2023/08/01 08:10:10;;;;;;;8.23;2.60;;;;;;;;;;5053938;28;20252;-30
2023/08/01 08:12:35;;;;;;;9.93;2.55;;;;;;;;;;5053897;28;20418;-31
2023/08/01 08:15:00;;;;;;;9.03;2.70;;;;;;;;;;5053395;28;20025;-30
2023/08/01 08:17:25;;;;;;;8.48;2.75;;;;;;;;;;5053903;28;20309;-31
2023/08/01 08:19:51;;;;;;;16.88;3.60;;;;;;;;;;5053635;28;20045;-31
2023/08/01 08:22:16;;;;;;;8.67;2.67;;;;;;;;;;5053219;28;20021;-31
2023/08/01 08:24:41;;;;;;;9.20;2.50;;;;;;;;;;5053828;28;20248;-30
2023/08/01 08:27:06;;;;;;;10.53;2.70;;;;;;;;;;5053492;28;20021;-32
2023/08/01 08:29:32;;;;;;;12.70;2.90;;;;;;;;;;5053212;28;20298;-31
2023/08/01 08:31:57;;;;;;;13.23;2.70;;;;;;;;;;5053319;28;20341;-32
2023/08/01 08:34:22;;;;;;;9.70;2.40;;;;;;;;;;5053685;28;20021;-31
2023/08/01 08:36:49;;;;;;;9.10;2.55;;;;;;;;;;5053168;28;20430;-32
2023/08/01 08:39:16;;;;;;;11.38;2.50;;;;;;;;;;5053131;28;20025;-32
2023/08/01 08:41:48;;;;;;;10.25;2.63;;;;;;;;;;5053347;28;20079;-32
2023/08/01 08:44:16;;;;;;;10.98;2.65;;;;;;;;;;5052812;28;20094;-32
2023/08/01 08:46:45;;;;;;;11.88;2.42;;;;;;;;;;5053048;28;20372;-35
2023/08/01 08:49:11;;;;;;;12.88;2.60;;;;;;;;;;5052937;28;20415;-30
2023/08/01 08:51:38;;;;;;;9.45;2.47;;;;;;;;;;5052930;28;20028;-31
2023/08/01 08:54:05;;;;;;;11.88;2.65;;;;;;;;;;5053354;28;20031;-31
2023/08/01 08:56:30;;;;;;;7.50;2.13;;;;;;;;;;5053618;28;20017;-31
2023/08/01 08:58:56;;;;;;;13.18;2.30;;;;;;;;;;5053010;28;20027;-31
2023/08/01 09:01:21;;;;;;;10.93;2.33;;;;;;;;;;5052890;28;20459;-31
2023/08/01 09:03:46;;;;;;;10.17;2.33;;;;;;;;;;5052768;28;20036;-31
2023/08/01 09:06:13;;;;;;;13.80;2.80;;;;;;;;;;5053414;28;20256;-30
2023/08/01 09:08:39;;;;;;;7.82;2.00;;;;;;;;;;5053046;28;20299;-31
2023/08/01 09:11:04;;;;;;;10.00;2.55;;;;;;;;;;5053062;28;20691;-32
2023/08/01 09:13:30;;;;;;;5.22;1.80;;;;;;;;;;5053043;28;20025;-31
2023/08/01 09:15:56;;;;;;;7.80;2.08;;;;;;;;;;5054060;28;20494;-31
2023/08/01 09:18:21;;;;;;;9.73;2.10;;;;;;;;;;5056578;28;20158;-31
2023/08/01 09:20:47;;;;;;;6.90;2.38;;;;;;;;;;5056462;28;20456;-31
2023/08/01 09:23:12;;;;;;;6.68;2.38;;;;;;;;;;5056673;28;20020;-32
2023/08/01 09:25:38;;;;;;;9.73;2.63;;;;;;;;;;5056737;28;20017;-31
2023/08/01 09:28:14;;;;;;;9.05;2.30;;;;;;;;;;5056432;28;20051;-32
2023/08/01 09:30:45;;;;;;;11.88;2.40;;;;;;;;;;5056665;28;20021;-32
2023/08/01 09:33:10;;;;;;;8.63;2.20;;;;;;;;;;5056695;28;20032;-31
2023/08/01 09:35:38;;;;;;;8.00;2.10;;;;;;;;;;5056318;28;20017;-31
2023/08/01 09:38:03;;;;;;;10.63;2.42;;;;;;;;;;5056918;28;20100;-31
2023/08/01 09:40:35;;;;;;;10.63;2.30;;;;;;;;;;5056286;28;20439;-31
2023/08/01 09:43:01;;;;;;;6.75;2.03;;;;;;;;;;5055994;28;20104;-31
2023/08/01 09:45:26;;;;;;;7.82;2.22;;;;;;;;;;5056168;28;20048;-32
2023/08/01 09:47:51;;;;;;;13.10;2.67;;;;;;;;;;5038258;28;20463;-32
2023/08/01 09:50:20;;;;;;;7.43;2.00;;;;;;;;;;5055941;28;20037;-31
2023/08/01 09:52:52;;;;;;;9.00;1.98;;;;;;;;;;5055554;28;20268;-32
2023/08/01 09:55:38;;;;;;;14.87;2.70;;;;;;;;;;5056332;28;20025;-32
2023/08/01 09:58:04;;;;;;;7.88;2.08;;;;;;;;;;5055323;28;20391;-31
2023/08/01 10:00:29;;;;;;;10.20;2.22;;;;;;;;;;5055820;28;20025;-31
2023/08/01 10:02:56;;;;;;;8.40;2.20;;;;;;;;;;5055991;28;20040;-32
2023/08/01 10:05:22;;;;;;;8.77;2.40;;;;;;;;;;5056330;28;20068;-32
2023/08/01 10:07:48;;;;;;;10.85;2.10;;;;;;;;;;5037767;28;20021;-31
2023/08/01 10:10:14;;;;;;;8.05;2.10;;;;;;;;;;5037888;28;20107;-31
2023/08/01 10:12:42;;;;;;;7.82;2.22;;;;;;;;;;5055881;28;20071;-32
2023/08/01 10:15:08;;;;;;;9.45;2.17;;;;;;;;;;5055176;28;20017;-32
2023/08/01 10:17:34;;;;;;;7.15;2.08;;;;;;;;;;5055620;28;20052;-31
2023/08/01 10:19:59;;;;;;;9.15;2.25;;;;;;;;;;5055819;28;20025;-31
2023/08/01 10:22:25;;;;;;;6.72;2.25;;;;;;;;;;5055267;28;20541;-32
2023/08/01 10:24:50;;;;;;;7.18;2.00;;;;;;;;;;5055382;28;20061;-32
2023/08/01 10:27:19;;;;;;;11.48;2.10;;;;;;;;;;5055131;28;20371;-31
2023/08/01 10:29:44;;;;;;;7.13;2.10;;;;;;;;;;5055339;28;20422;-31
2023/08/01 10:32:10;;;;;;;10.70;2.40;;;;;;;;;;5055777;28;20052;-31
2023/08/01 10:34:35;;;;;;;8.52;2.00;;;;;;;;;;5055128;28;20025;-32
2023/08/01 10:37:01;;;;;;;5.82;1.70;;;;;;;;;;5055443;28;20059;-32
2023/08/01 10:39:27;;;;;;;6.35;1.83;;;;;;;;;;5055025;28;20531;-32
2023/08/01 10:41:59;;;;;;;7.72;2.03;;;;;;;;;;5055307;28;20028;-32
2023/08/01 10:44:24;;;;;;;9.00;2.10;;;;;;;;;;5054876;28;20016;-32
2023/08/01 10:46:49;;;;;;;10.38;2.25;;;;;;;;;;5056026;28;20493;-32
2023/08/01 10:49:15;;;;;;;8.83;2.03;;;;;;;;;;5054846;28;20033;-31
2023/08/01 10:51:40;;;;;;;9.98;2.30;;;;;;;;;;5054835;28;20009;-31
2023/08/01 10:54:06;;;;;;;6.40;2.00;;;;;;;;;;5055266;28;20024;-32
2023/08/01 10:56:31;;;;;;;10.18;2.13;;;;;;;;;;5055063;28;20059;-32
2023/08/01 10:58:57;;;;;;;9.38;2.00;;;;;;;;;;5054899;28;20017;-32
2023/08/01 11:01:23;;;;;;;7.18;2.00;;;;;;;;;;5054738;28;20017;-32
2023/08/01 11:03:48;;;;;;;8.07;2.53;;;;;;;;;;5054560;28;20032;-32
2023/08/01 11:06:13;;;;;;;10.68;2.30;;;;;;;;;;5036784;28;20275;-31
2023/08/01 11:08:39;;;;;;;11.30;1.87;;;;;;;;;;5054455;28;20049;-32
2023/08/01 11:11:07;;;;;;;13.02;2.17;;;;;;;;;;5054496;28;20309;-32
2023/08/01 11:13:34;;;;;;;7.90;1.90;;;;;;;;;;5054435;28;20083;-31
2023/08/01 11:16:00;;;;;;;9.70;2.40;;;;;;;;;;5036528;28;20020;-32
2023/08/01 11:18:25;;;;;;;6.38;2.10;;;;;;;;;;5054325;28;20103;-31
2023/08/01 11:20:50;;;;;;;6.53;2.30;;;;;;;;;;5054579;28;20035;-31
2023/08/01 11:23:15;;;;;;;7.17;2.13;;;;;;;;;;5054732;28;20123;-31
2023/08/01 11:25:43;;;;;;;8.43;2.37;;;;;;;;;;5054273;28;20023;-31
2023/08/01 11:28:11;;;;;;;8.50;2.10;;;;;;;;;;5054306;28;20367;-32
2023/08/01 11:30:37;;;;;;;6.47;1.70;;;;;;;;;;5054084;28;20032;-32
2023/08/01 11:33:12;;;;;;;8.55;2.08;;;;;;;;;;5055194;28;20021;-32
2023/08/01 11:35:38;;;;;;;8.93;1.80;;;;;;;;;;5054105;28;20017;-32
2023/08/01 11:38:03;;;;;;;8.32;1.90;;;;;;;;;;5053985;28;20103;-32
2023/08/01 11:40:28;;;;;;;8.57;2.05;;;;;;;;;;5053950;28;20034;-32
2023/08/01 11:42:56;;;;;;;8.27;2.08;;;;;;;;;;5053795;28;20025;-32
2023/08/01 11:45:21;;;;;;;9.90;2.10;;;;;;;;;;5053767;28;20021;-32
2023/08/01 11:47:47;;;;;;;6.97;1.80;;;;;;;;;;5054435;28;20021;-32
2023/08/01 11:50:13;;;;;;;4.05;1.83;;;;;;;;;;5053703;28;20045;-32
2023/08/01 11:52:38;;;;;;;5.93;1.50;;;;;;;;;;5053740;28;20187;-32
2023/08/01 11:55:04;;;;;;;6.88;2.00;;;;;;;;;;5053709;28;20025;-32
2023/08/01 11:57:29;;;;;;;4.38;1.65;;;;;;;;;;5053665;28;20032;-32
2023/08/01 11:59:56;;;;;;;8.65;2.00;;;;;;;;;;5053889;28;20478;-32
2023/08/01 12:02:21;;;;;;;7.30;2.20;;;;;;;;;;5053733;28;20060;-32
2023/08/01 12:04:47;;;;;;;7.05;1.70;;;;;;;;;;5054324;28;20021;-32
2023/08/01 12:07:13;;;;;;;7.85;1.85;;;;;;;;;;5035759;28;20063;-32
2023/08/01 12:09:38;;;;;;;9.95;2.20;;;;;;;;;;5035595;28;20024;-32
2023/08/01 12:12:04;;;;;;;11.03;2.43;;;;;;;;;;5053873;28;20021;-31
2023/08/01 12:14:29;;;;;;;7.85;2.10;;;;;;;;;;5053948;28;20077;-32
2023/08/01 12:16:54;;;;;;;6.50;2.23;;;;;;;;;;5053374;28;20017;-31
2023/08/01 12:19:20;;;;;;;7.10;2.05;;;;;;;;;;5053617;28;20016;-31
2023/08/01 12:21:46;;;;;;;5.00;1.85;;;;;;;;;;5053276;28;20044;-31
2023/08/01 12:24:12;;;;;;;10.43;2.15;;;;;;;;;;5053297;28;20025;-30
2023/08/01 12:26:37;;;;;;;6.85;1.92;;;;;;;;;;5053175;28;20100;-31
2023/08/01 12:29:02;;;;;;;7.27;1.93;;;;;;;;;;5053852;28;20463;-31
2023/08/01 12:31:28;;;;;;;9.77;2.10;;;;;;;;;;5053337;28;20726;-31
2023/08/01 12:33:53;;;;;;;9.25;2.03;;;;;;;;;;5053506;28;20071;-31
2023/08/01 12:36:19;;;;;;;6.35;1.90;;;;;;;;;;5053127;28;20021;-32
2023/08/01 12:38:44;;;;;;;9.85;1.90;;;;;;;;;;5053336;28;20029;-31
2023/08/01 12:41:09;;;;;;;9.65;2.10;;;;;;;;;;5053364;28;20013;-31
2023/08/01 12:43:35;;;;;;;10.25;2.08;;;;;;;;;;5035153;28;20040;-31
2023/08/01 12:46:00;;;;;;;5.57;1.73;;;;;;;;;;5053392;28;20511;-31
2023/08/01 12:48:26;;;;;;;7.47;1.77;;;;;;;;;;5053439;28;20044;-30
2023/08/01 12:50:51;;;;;;;6.93;2.25;;;;;;;;;;5054627;28;20048;-32
2023/08/01 12:53:17;;;;;;;7.38;2.00;;;;;;;;;;5057098;28;20040;-31
2023/08/01 12:55:46;;;;;;;5.95;1.80;;;;;;;;;;5056199;28;20021;-31
2023/08/01 12:58:12;;;;;;;4.97;1.52;;;;;;;;;;5057683;28;20451;-31
2023/08/01 13:00:37;;;;;;;6.45;1.67;;;;;;;;;;5057650;28;20104;-32
2023/08/01 13:03:03;;;;;;;4.17;1.43;;;;;;;;;;5057439;28;20353;-31
2023/08/01 13:05:28;;;;;;;8.00;1.80;;;;;;;;;;5055820;28;20773;-31
2023/08/01 13:07:53;;;;;;;11.63;2.40;;;;;;;;;;5055476;28;20021;-30
2023/08/01 13:10:18;;;;;;;6.22;2.08;;;;;;;;;;5055261;28;20029;-31
2023/08/01 13:12:43;;;;;;;9.03;2.10;;;;;;;;;;5053706;28;20028;-31
2023/08/01 13:15:09;;;;;;;8.37;1.80;;;;;;;;;;5054926;28;20120;-31
2023/08/01 13:17:34;;;;;;;8.65;2.03;;;;;;;;;;5054678;28;20658;-31
2023/08/01 13:19:59;;;;;;;13.60;2.72;;;;;;;;;;5054445;28;20071;-31
2023/08/01 13:22:24;;;;;;;14.13;2.30;;;;;;;;;;5052564;28;20055;-30
2023/08/01 13:24:49;;;;;;;9.10;2.33;;;;;;;;;;5053853;28;20286;-31
2023/08/01 13:27:15;;;;;;;13.90;2.50;;;;;;;;;;5054787;28;20029;-31
2023/08/01 13:29:40;;;;;;;10.03;2.20;;;;;;;;;;5054735;28;20263;-31
2023/08/01 13:32:06;;;;;;;9.53;2.40;;;;;;;;;;5054461;28;20266;-31
2023/08/01 13:34:31;;;;;;;12.02;2.67;;;;;;;;;;5055020;28;20114;-31
2023/08/01 13:36:56;;;;;;;11.63;2.37;;;;;;;;;;5056070;28;20144;-31
2023/08/01 13:39:21;;;;;;;8.15;1.98;;;;;;;;;;5056391;28;20251;-31
2023/08/01 13:41:47;;;;;;;8.90;2.23;;;;;;;;;;5056451;28;20104;-32
2023/08/01 13:44:12;;;;;;;11.60;2.43;;;;;;;;;;5056633;28;20319;-36
2023/08/01 13:46:37;;;;;;;11.27;2.13;;;;;;;;;;5056506;28;20279;-31
2023/08/01 13:49:02;;;;;;;11.47;2.40;;;;;;;;;;5056210;28;20049;-30
2023/08/01 13:51:27;;;;;;;7.77;2.43;;;;;;;;;;5056415;28;20262;-31
2023/08/01 13:53:53;;;;;;;8.00;2.20;;;;;;;;;;5056617;28;20021;-31
2023/08/01 13:56:18;;;;;;;9.43;2.30;;;;;;;;;;5056361;28;20024;-31
2023/08/01 13:58:43;;;;;;;7.15;2.17;;;;;;;;;;5056057;28;20021;-31
2023/08/01 14:01:09;;;;;;;9.33;2.43;;;;;;;;;;5055965;28;20021;-32
2023/08/01 14:03:35;;;;;;;8.45;2.30;;;;;;;;;;5056399;28;20284;-32
2023/08/01 14:06:04;;;;;;;11.95;2.47;;;;;;;;;;5056230;28;20079;-32
2023/08/01 14:08:29;;;;;;;8.25;2.28;;;;;;;;;;5056063;28;20021;-31
2023/08/01 14:10:54;;;;;;;8.97;2.20;;;;;;;;;;5056117;28;20021;-32
2023/08/01 14:13:20;;;;;;;8.57;2.07;;;;;;;;;;5055796;28;20533;-32
2023/08/01 14:15:45;;;;;;;8.77;2.40;;;;;;;;;;5056457;28;20314;-32
2023/08/01 14:18:10;;;;;;;7.80;1.90;;;;;;;;;;5055696;28;20258;-33
2023/08/01 14:20:35;;;;;;;11.25;2.28;;;;;;;;;;5055942;28;20459;-31
2023/08/01 14:23:00;;;;;;;8.57;2.20;;;;;;;;;;5056001;28;20056;-31
2023/08/01 14:25:26;;;;;;;7.27;1.80;;;;;;;;;;5055579;28;20062;-31